Main page
METAR-TAF:

METAR-TAF

Airports :

Manhattan Regional Airport

Manhattan, Kansas, United States

latitude: 39-08-07N, longitude: 096-40-40W, elevation: 1053 ft

Current weather observation

The report was made 33 minutes ago, at 12:52 UTC
Wind 3 mph from the Southwest
Temperature 30°F
Humidity 74%
Pressure 30.18 in. Hg
Visibility: 10 miles
Clear sky

METAR: KMHK 221252Z 23003KT 10SM CLR M01/M05 A3018 RMK AO2 SLP230 T10111050

Time: 07:25 (13:25 UTC)

Forecast

The report was made 2 hours and 5 minutes ago, at 11:20 UTC
Forecast valid from 22 at 12 UTC to 23 at 12 UTC
Wind 14 mph from the South/Southwest
Visibility: 6 miles
Scattered clouds at a height of 25000 ft
From 22 at 2300 UTC
Wind 6 mph from the South/Southwest
Visibility: 6 miles
Broken clouds at a height of 20000 ft

TAF: KMHK 221120Z 2212/2312 21012KT P6SM SCT250 FM222300 21005KT P6SM BKN200

Weather observations and forecasts of more than 4000 airports (METAR and TAF reports).

The available stations are represented by yellow and red dots on the map.

Hover mouse over dot to see the name of the station.

Then click to see weather observations and forecasts.

To change the map : click on the green buttons with a black cross to zoom in, on the green button with a dash to zoom out, or on the green arrows for adjacent maps.


METAR-TAF: